Time;durP1;ratioP1;P1;durP2;ratioP2;P2;SDS_P1;SDS_P2;PMS_P1;PMS_P2;Temp;Humidity;BMP_temperature;BMP_pressure;BME280_temperature;BME280_humidity;BME280_pressure;Samples;Min_cycle;Max_cycle;Signal;HPM_P1;HPM_P2
2021/05/16 00:00:35;;;;;;;17.42;7.92;;;;;;;13.83;74.69;100270.78;1767386;80;21219;-56
2021/05/16 00:03:40;;;;;;;21.75;7.67;;;;;;;13.76;74.71;100270.41;1767296;80;21770;-57
2021/05/16 00:06:46;;;;;;;22.25;8.88;;;;;;;13.72;74.91;100281.47;1767342;81;21176;-57
2021/05/16 00:09:51;;;;;;;23.98;7.65;;;;;;;13.69;75.14;100284.62;1767307;80;21267;-58
2021/05/16 00:12:56;;;;;;;24.98;9.65;;;;;;;13.66;75.14;100275.39;1767470;81;21413;-57
2021/05/16 00:16:03;;;;;;;20.52;10.08;;;;;;;13.59;75.23;100279.45;1767355;81;21208;-57
2021/05/16 00:19:09;;;;;;;17.67;7.62;;;;;;;13.54;75.33;100273.17;1767366;80;21810;-56
2021/05/16 00:22:15;;;;;;;16.57;8.50;;;;;;;13.49;75.49;100275.66;1767508;81;21623;-56
2021/05/16 00:25:23;;;;;;;19.00;8.05;;;;;;;13.43;75.48;100267.34;1767417;80;21184;-57
2021/05/16 00:28:28;;;;;;;14.70;7.55;;;;;;;13.37;75.59;100274.50;1767411;81;21183;-58
2021/05/16 00:31:33;;;;;;;14.75;7.20;;;;;;;13.31;75.55;100273.91;1767431;81;21168;-58
2021/05/16 00:34:39;;;;;;;16.48;6.97;;;;;;;13.27;75.78;100275.33;1766887;80;21219;-57
2021/05/16 00:37:45;;;;;;;12.88;6.80;;;;;;;13.24;75.80;100279.85;1767009;81;21183;-57
2021/05/16 00:40:51;;;;;;;20.68;7.92;;;;;;;13.19;75.89;100280.13;1766959;80;21728;-57
2021/05/16 00:43:56;;;;;;;18.85;7.67;;;;;;;13.14;75.84;100279.86;1766899;80;21246;-58
2021/05/16 00:47:01;;;;;;;19.42;7.92;;;;;;;13.10;76.08;100287.63;1767108;81;21187;-58
2021/05/16 00:50:06;;;;;;;19.30;8.65;;;;;;;13.07;76.41;100292.14;1767402;80;21224;-58
2021/05/16 00:53:12;;;;;;;16.02;7.60;;;;;;;13.07;76.58;100287.16;1767899;79;21251;-58
2021/05/16 00:56:17;;;;;;;19.15;8.03;;;;;;;13.03;76.61;100288.06;1808311;79;21215;-58
2021/05/16 00:59:24;;;;;;;19.30;7.58;;;;;;;13.01;76.66;100289.31;1811974;78;21354;-58
2021/05/16 01:02:31;;;;;;;23.73;9.75;;;;;;;12.95;76.63;100292.30;1810737;79;21251;-57
2021/05/16 01:05:37;;;;;;;38.65;12.45;;;;;;;12.93;76.83;100297.13;1810613;79;21715;-58
2021/05/16 01:08:43;;;;;;;25.27;11.60;;;;;;;12.92;76.78;100297.33;1810803;79;21200;-57
2021/05/16 01:11:51;;;;;;;29.70;9.60;;;;;;;12.92;76.88;100300.91;1810703;79;21191;-57
2021/05/16 01:14:59;;;;;;;22.65;8.28;;;;;;;12.90;76.88;100295.28;1810723;79;21242;-58
2021/05/16 01:18:04;;;;;;;23.00;7.42;;;;;;;12.87;76.60;100294.30;1788433;79;21369;-58
2021/05/16 01:21:09;;;;;;;20.15;7.35;;;;;;;12.79;76.58;100299.39;1810607;79;21208;-58
2021/05/16 01:24:27;;;;;;;14.53;6.65;;;;;;;12.74;76.70;100296.36;1810762;79;21199;-58
2021/05/16 01:27:33;;;;;;;13.48;7.45;;;;;;;12.70;76.88;100303.27;1810727;79;21242;-58
2021/05/16 01:30:39;;;;;;;16.90;6.92;;;;;;;12.67;76.87;100307.77;1810783;79;21369;-58
2021/05/16 01:33:44;;;;;;;14.80;6.03;;;;;;;12.62;77.04;100304.73;1810530;79;21207;-58
2021/05/16 01:36:49;;;;;;;16.12;7.28;;;;;;;12.62;77.34;100306.66;1810739;79;21302;-59
2021/05/16 01:39:56;;;;;;;15.85;6.70;;;;;;;12.60;77.49;100295.86;1810790;79;21330;-58
2021/05/16 01:43:02;;;;;;;16.67;6.55;;;;;;;12.60;77.54;100310.11;1810786;79;21180;-58
2021/05/16 01:46:07;;;;;;;14.03;7.08;;;;;;;12.57;77.54;100302.25;1810656;79;21299;-58
2021/05/16 01:49:12;;;;;;;15.30;5.90;;;;;;;12.53;77.55;100303.66;1810717;79;21294;-58
2021/05/16 01:52:19;;;;;;;16.17;6.40;;;;;;;12.50;77.82;100303.53;1810872;79;21235;-58
2021/05/16 01:55:25;;;;;;;18.12;7.00;;;;;;;12.49;78.22;100308.70;1802756;79;21221;-58
2021/05/16 01:58:31;;;;;;;19.60;7.20;;;;;;;12.47;78.28;100309.41;1797044;80;21204;-59
2021/05/16 02:01:36;;;;;;;19.77;6.78;;;;;;;12.49;78.47;100310.07;1797170;80;21385;-58
2021/05/16 02:04:42;;;;;;;13.43;6.00;;;;;;;12.50;78.43;100313.14;1797112;80;21338;-58
2021/05/16 02:07:47;;;;;;;16.90;6.40;;;;;;;12.47;78.16;100319.02;1797100;80;21389;-59
2021/05/16 02:10:54;;;;;;;14.38;6.58;;;;;;;12.43;78.03;100314.92;1797011;80;21204;-57
2021/05/16 02:14:03;;;;;;;11.55;6.37;;;;;;;12.40;77.99;100313.94;1797161;80;21788;-57
2021/05/16 02:17:10;;;;;;;12.88;5.80;;;;;;;12.40;77.98;100317.22;1797083;80;21862;-58
2021/05/16 02:20:20;;;;;;;15.55;6.12;;;;;;;12.37;77.91;100317.06;1797194;80;21251;-58
2021/05/16 02:23:25;;;;;;;14.90;6.08;;;;;;;12.36;77.84;100316.73;1797054;80;21863;-58
2021/05/16 02:26:31;;;;;;;12.88;5.65;;;;;;;12.36;77.90;100318.63;1797001;80;21358;-58
2021/05/16 02:29:37;;;;;;;11.65;5.45;;;;;;;12.35;77.79;100319.17;1796809;80;21361;-58
2021/05/16 02:32:44;;;;;;;12.43;5.28;;;;;;;12.37;77.96;100323.09;1797136;80;21338;-58
2021/05/16 02:35:49;;;;;;;13.08;5.53;;;;;;;12.40;78.13;100324.91;1797112;80;21366;-57
2021/05/16 02:38:55;;;;;;;15.63;5.70;;;;;;;12.42;78.20;100320.61;1797158;80;21224;-57
2021/05/16 02:42:02;;;;;;;11.15;5.03;;;;;;;12.44;78.49;100314.41;1797232;80;21347;-59
2021/05/16 02:45:11;;;;;;;12.30;5.40;;;;;;;12.50;78.53;100324.63;1797290;80;21216;-57
2021/05/16 02:48:18;;;;;;;9.45;5.20;;;;;;;12.54;78.49;100325.97;1797088;80;21351;-59
2021/05/16 02:51:23;;;;;;;13.28;5.50;;;;;;;12.58;78.48;100328.66;1797295;80;21985;-57
2021/05/16 02:54:29;;;;;;;11.12;5.15;;;;;;;12.63;78.44;100322.08;1797098;80;21271;-57
2021/05/16 02:57:35;;;;;;;10.05;4.80;;;;;;;12.68;78.47;100331.47;1793502;79;21378;-57
2021/05/16 03:00:44;;;;;;;14.30;5.40;;;;;;;12.76;78.51;100328.62;1793727;80;21390;-57
2021/05/16 03:03:52;;;;;;;11.45;6.12;;;;;;;12.85;78.39;100339.83;1793846;80;21355;-58
2021/05/16 03:06:58;;;;;;;14.90;5.58;;;;;;;12.94;78.34;100335.05;1793860;80;21342;-57
2021/05/16 03:10:03;;;;;;;10.38;5.65;;;;;;;13.03;78.15;100338.91;1793935;80;21351;-58
2021/05/16 03:13:10;;;;;;;10.95;5.85;;;;;;;13.08;77.93;100340.56;1793868;80;21307;-56
2021/05/16 03:16:15;;;;;;;10.05;5.17;;;;;;;13.12;77.74;100345.16;1793829;80;21323;-57
2021/05/16 03:19:20;;;;;;;8.10;4.70;;;;;;;13.20;77.52;100345.04;1793817;80;21347;-57
2021/05/16 03:22:25;;;;;;;8.48;4.55;;;;;;;13.30;77.08;100346.42;1793824;80;21365;-59
2021/05/16 03:25:33;;;;;;;11.57;5.22;;;;;;;13.41;76.85;100352.78;1793740;80;21323;-58
2021/05/16 03:28:38;;;;;;;14.80;5.28;;;;;;;13.51;76.74;100353.84;1793748;80;21330;-58
2021/05/16 03:31:44;;;;;;;13.65;5.25;;;;;;;13.61;76.29;100348.88;1793769;80;21359;-57
2021/05/16 03:34:50;;;;;;;10.08;4.25;;;;;;;13.74;75.94;100353.15;1793892;80;21212;-58
2021/05/16 03:37:56;;;;;;;11.50;5.05;;;;;;;13.88;75.55;100360.98;1793829;80;21209;-58
2021/05/16 03:41:03;;;;;;;9.53;3.95;;;;;;;13.98;75.24;100350.50;1794003;80;21165;-59
2021/05/16 03:44:09;;;;;;;7.97;3.65;;;;;;;14.10;74.97;100353.03;1793981;80;21216;-58
2021/05/16 03:47:14;;;;;;;9.05;4.75;;;;;;;14.22;74.40;100346.77;1793828;80;21193;-57
2021/05/16 03:50:21;;;;;;;7.50;4.87;;;;;;;14.37;73.96;100345.34;1793773;80;21188;-59
2021/05/16 03:53:27;;;;;;;12.33;5.05;;;;;;;14.49;73.44;100353.38;1793995;80;21191;-57
2021/05/16 03:56:33;;;;;;;10.23;5.25;;;;;;;14.61;73.07;100344.86;1793662;80;21362;-58
2021/05/16 03:59:39;;;;;;;9.83;4.20;;;;;;;14.73;72.73;100351.53;1804505;79;21197;-58
2021/05/16 04:02:44;;;;;;;9.40;4.20;;;;;;;14.83;72.35;100349.23;1768811;81;21383;-59
2021/05/16 04:05:50;;;;;;;6.58;3.55;;;;;;;14.95;71.89;100351.20;1771151;81;21407;-58
2021/05/16 04:08:55;;;;;;;7.47;3.83;;;;;;;15.07;71.40;100347.34;1770996;80;21189;-57
2021/05/16 04:12:01;;;;;;;9.85;4.08;;;;;;;15.20;70.82;100343.78;1771061;81;21325;-57
2021/05/16 04:15:06;;;;;;;8.58;3.35;;;;;;;15.32;70.50;100344.91;1794289;79;21275;-57
2021/05/16 04:18:12;;;;;;;18.35;5.80;;;;;;;15.43;69.83;100342.40;1794393;79;21354;-58
2021/05/16 04:21:17;;;;;;;19.40;6.28;;;;;;;15.55;69.99;100344.03;1794109;79;21326;-58
2021/05/16 04:24:22;;;;;;;14.50;5.80;;;;;;;15.67;69.91;100344.59;1793836;80;21319;-58
2021/05/16 04:27:27;;;;;;;13.25;4.78;;;;;;;15.77;69.62;100340.89;1794118;79;21227;-57
2021/05/16 04:30:33;;;;;;;10.90;4.85;;;;;;;15.87;69.37;100346.83;1794354;80;21220;-58
2021/05/16 04:33:39;;;;;;;11.08;4.85;;;;;;;15.98;68.92;100345.37;1793732;79;21180;-58
2021/05/16 04:36:46;;;;;;;12.50;5.22;;;;;;;16.07;68.65;100340.81;1793870;79;21346;-57
2021/05/16 04:39:51;;;;;;;11.12;5.05;;;;;;;16.19;68.39;100340.48;1793936;79;21382;-58
2021/05/16 04:42:58;;;;;;;10.65;5.42;;;;;;;16.32;67.85;100335.47;1794119;79;21307;-57
2021/05/16 04:46:03;;;;;;;10.43;5.10;;;;;;;16.44;67.71;100336.55;1794011;79;21303;-57
2021/05/16 04:49:09;;;;;;;9.43;4.72;;;;;;;16.56;67.33;100341.75;1794108;79;21331;-58
2021/05/16 04:52:14;;;;;;;12.58;4.58;;;;;;;16.69;66.93;100346.40;1794227;79;21330;-58
2021/05/16 04:55:21;;;;;;;9.43;4.58;;;;;;;16.81;66.52;100344.69;1793952;80;21393;-57
2021/05/16 04:58:26;;;;;;;12.93;4.00;;;;;;;16.95;66.55;100358.23;1793485;79;21471;-58
2021/05/16 05:01:32;;;;;;;13.75;3.90;;;;;;;17.09;67.31;100352.14;1794060;80;21149;-58
2021/05/16 05:04:37;;;;;;;8.95;3.52;;;;;;;17.22;67.32;100347.94;1793873;80;21338;-58
2021/05/16 05:07:43;;;;;;;9.73;3.75;;;;;;;17.37;66.92;100346.59;1793925;80;21227;-57
2021/05/16 05:10:49;;;;;;;9.53;3.40;;;;;;;17.53;66.40;100349.41;1793860;80;21220;-58
2021/05/16 05:13:54;;;;;;;9.58;3.30;;;;;;;17.68;66.67;100355.47;1773395;80;21373;-57
2021/05/16 05:17:01;;;;;;;7.90;3.67;;;;;;;17.79;66.17;100350.64;1793843;80;21362;-57
2021/05/16 05:20:06;;;;;;;11.63;3.10;;;;;;;17.92;65.75;100355.23;1794838;79;21382;-58
2021/05/16 05:23:12;;;;;;;9.98;3.45;;;;;;;18.04;65.38;100354.29;1795017;79;21437;-58
2021/05/16 05:26:17;;;;;;;13.50;3.65;;;;;;;18.19;65.30;100359.50;1780936;80;21377;-61
2021/05/16 05:29:23;;;;;;;10.13;2.92;;;;;;;18.33;64.94;100356.37;1790684;79;21783;-57
2021/05/16 05:32:28;;;;;;;7.60;3.15;;;;;;;18.47;64.25;100359.92;1794439;80;21373;-56
2021/05/16 05:35:35;;;;;;;11.80;2.65;;;;;;;18.57;63.70;100359.70;1795107;80;21350;-59
2021/05/16 05:38:40;;;;;;;10.23;2.90;;;;;;;18.68;64.00;100370.05;1795123;80;21232;-58
2021/05/16 05:41:46;;;;;;;7.47;3.35;;;;;;;18.80;63.20;100374.31;1794760;80;21227;-58
2021/05/16 05:44:51;;;;;;;7.22;3.00;;;;;;;18.91;62.31;100375.80;1793613;80;21919;-59
2021/05/16 05:47:57;;;;;;;13.35;3.37;;;;;;;19.03;61.71;100373.08;1793776;80;21203;-58
2021/05/16 05:51:03;;;;;;;11.00;3.37;;;;;;;19.17;62.33;100368.53;1793745;80;21843;-57
2021/05/16 05:54:08;;;;;;;7.37;2.87;;;;;;;19.29;61.29;100368.12;1793493;80;21559;-58
2021/05/16 05:57:15;;;;;;;8.60;2.70;;;;;;;19.40;60.37;100367.01;1793740;80;21839;-58
2021/05/16 06:00:21;;;;;;;6.65;2.90;;;;;;;19.54;59.43;100372.69;1800417;79;21321;-58
2021/05/16 06:03:26;;;;;;;7.72;2.40;;;;;;;19.69;59.21;100373.14;1810637;79;21668;-59
2021/05/16 06:06:32;;;;;;;8.03;2.77;;;;;;;19.84;58.58;100367.98;1810686;79;21215;-58
2021/05/16 06:09:39;;;;;;;8.45;2.55;;;;;;;20.01;57.88;100367.08;1810698;79;21198;-58
2021/05/16 06:12:44;;;;;;;5.45;2.30;;;;;;;20.16;57.20;100368.06;1810731;79;21719;-58
2021/05/16 06:15:51;;;;;;;5.65;2.25;;;;;;;20.28;56.71;100367.00;1810697;79;21207;-57
2021/05/16 06:19:00;;;;;;;5.42;2.52;;;;;;;20.40;56.14;100364.24;1810838;79;21341;-57
2021/05/16 06:22:07;;;;;;;10.93;3.90;;;;;;;20.53;55.81;100362.63;1810776;79;21187;-58
2021/05/16 06:25:12;;;;;;;6.42;3.50;;;;;;;20.67;55.67;100351.56;1811181;79;21842;-58
2021/05/16 06:28:18;;;;;;;5.37;2.42;;;;;;;20.80;55.21;100350.76;1810771;79;21200;-58
2021/05/16 06:31:25;;;;;;;3.05;1.67;;;;;;;20.95;54.97;100357.22;1810729;79;21238;-58
2021/05/16 06:34:32;;;;;;;4.62;1.80;;;;;;;21.13;53.91;100353.48;1809285;79;21338;-59
2021/05/16 06:37:39;;;;;;;4.53;1.70;;;;;;;21.26;53.14;100353.22;1812552;79;21322;-57
2021/05/16 06:40:45;;;;;;;5.83;1.80;;;;;;;21.40;52.44;100356.88;1812409;79;21175;-58
2021/05/16 06:43:52;;;;;;;5.97;1.85;;;;;;;21.50;52.34;100358.45;1812374;79;21278;-60
2021/05/16 06:46:58;;;;;;;4.60;1.72;;;;;;;21.60;51.79;100353.11;1812268;79;21204;-57
2021/05/16 06:50:04;;;;;;;5.58;1.87;;;;;;;21.70;51.81;100346.88;1812171;79;21203;-58
2021/05/16 06:53:10;;;;;;;3.47;2.00;;;;;;;21.79;50.85;100348.20;1812159;79;21326;-58
2021/05/16 06:56:15;;;;;;;4.65;2.12;;;;;;;21.86;50.95;100348.38;1811945;79;21908;-58
2021/05/16 06:59:21;;;;;;;2.35;1.50;;;;;;;21.92;50.63;100348.75;1811968;79;21314;-58
2021/05/16 07:02:27;;;;;;;6.12;1.45;;;;;;;21.99;49.49;100345.24;1796356;77;21362;-58
2021/05/16 07:05:34;;;;;;;3.35;1.35;;;;;;;22.05;50.10;100349.84;1795138;80;21860;-58
2021/05/16 07:08:41;;;;;;;4.50;1.55;;;;;;;22.11;49.05;100339.07;1795489;80;21343;-58
2021/05/16 07:11:49;;;;;;;4.00;1.50;;;;;;;22.18;48.71;100348.67;1795353;79;21195;-58
2021/05/16 07:14:56;;;;;;;2.55;1.47;;;;;;;22.26;49.11;100339.03;1795003;79;21203;-57
2021/05/16 07:18:02;;;;;;;2.87;1.27;;;;;;;22.28;47.80;100327.91;1764304;81;21199;-57
2021/05/16 07:21:09;;;;;;;4.95;1.05;;;;;;;22.31;47.67;100327.97;1771784;80;21227;-57
2021/05/16 07:24:16;;;;;;;2.98;1.20;;;;;;;22.34;47.30;100334.44;1793679;80;21417;-57
2021/05/16 07:27:21;;;;;;;4.65;1.30;;;;;;;22.37;46.08;100336.17;1793794;80;21339;-58
2021/05/16 07:30:28;;;;;;;3.62;0.98;;;;;;;22.41;45.54;100332.30;1793706;80;21347;-57
2021/05/16 07:33:33;;;;;;;2.02;1.00;;;;;;;22.46;45.56;100325.41;1793864;80;21307;-58
2021/05/16 07:36:39;;;;;;;6.28;1.12;;;;;;;22.54;44.96;100325.02;1793434;80;21200;-56
2021/05/16 07:39:46;;;;;;;9.78;5.03;;;;;;;22.59;44.26;100319.52;1793665;80;22023;-57
2021/05/16 07:42:51;;;;;;;4.33;1.65;;;;;;;22.63;44.23;100321.55;1793833;80;21180;-57
2021/05/16 07:45:56;;;;;;;1.12;0.95;;;;;;;22.67;44.12;100321.88;1792500;80;21369;-58
2021/05/16 07:49:02;;;;;;;3.90;0.85;;;;;;;22.76;44.08;100321.73;1793062;80;21243;-57
2021/05/16 07:52:08;;;;;;;1.35;0.85;;;;;;;22.88;43.63;100314.94;1792002;80;21397;-58
2021/05/16 07:55:17;;;;;;;1.32;0.70;;;;;;;22.99;41.52;100315.94;1793462;80;21216;-58
2021/05/16 07:58:22;;;;;;;2.22;0.80;;;;;;;23.05;39.73;100314.36;1785752;80;21414;-57
2021/05/16 08:01:28;;;;;;;1.45;0.75;;;;;;;23.13;40.16;100310.27;1792938;79;21351;-59
2021/05/16 08:04:35;;;;;;;1.00;0.60;;;;;;;23.21;38.65;100305.63;1800806;79;21362;-57
2021/05/16 08:07:40;;;;;;;1.15;0.68;;;;;;;23.30;38.50;100308.27;1801481;79;21752;-58
2021/05/16 08:10:46;;;;;;;2.62;0.68;;;;;;;23.36;35.99;100300.23;1801044;79;21351;-57
2021/05/16 08:13:53;;;;;;;2.17;0.60;;;;;;;23.46;35.92;100308.75;1799586;79;21375;-60
2021/05/16 08:16:59;;;;;;;2.02;0.78;;;;;;;23.54;36.43;100305.50;1793042;79;21196;-57
2021/05/16 08:20:06;;;;;;;4.15;0.80;;;;;;;23.60;35.87;100309.48;1775889;80;21180;-58
2021/05/16 08:23:12;;;;;;;1.02;0.50;;;;;;;23.66;36.57;100306.18;1800530;79;21237;-59
2021/05/16 08:26:17;;;;;;;1.62;0.57;;;;;;;23.76;35.74;100306.84;1775803;80;21335;-59
2021/05/16 08:29:25;;;;;;;2.87;0.70;;;;;;;23.84;35.76;100299.38;1801735;79;21372;-58
2021/05/16 08:32:32;;;;;;;2.77;0.90;;;;;;;23.96;36.85;100310.69;1766913;80;21570;-57
2021/05/16 08:35:38;;;;;;;4.35;0.80;;;;;;;24.08;36.40;100307.22;1799957;79;21840;-58
2021/05/16 08:38:44;;;;;;;4.12;0.70;;;;;;;24.16;36.50;100292.75;1775225;80;21720;-59
2021/05/16 08:41:51;;;;;;;2.67;0.60;;;;;;;24.22;36.37;100294.47;1800741;79;21399;-58
2021/05/16 08:44:57;;;;;;;1.52;0.70;;;;;;;24.28;36.97;100303.73;1778964;80;21345;-58
2021/05/16 08:48:04;;;;;;;2.05;0.70;;;;;;;24.41;35.25;100296.30;1801085;79;21870;-58
2021/05/16 08:51:09;;;;;;;1.62;0.80;;;;;;;24.45;34.60;100290.47;1776369;80;21318;-56
2021/05/16 08:54:16;;;;;;;3.58;0.90;;;;;;;24.51;35.95;100292.19;1801477;79;21750;-59
2021/05/16 08:57:23;;;;;;;2.70;0.70;;;;;;;24.58;35.33;100292.23;1776503;80;21335;-57
2021/05/16 09:00:32;;;;;;;1.05;0.75;;;;;;;24.69;35.45;100281.96;1801541;79;21317;-58
2021/05/16 09:03:39;;;;;;;1.92;0.70;;;;;;;24.78;34.21;100277.56;1765962;79;22012;-58
2021/05/16 09:06:46;;;;;;;2.87;0.98;;;;;;;24.86;34.77;100269.47;1769615;81;21252;-57
2021/05/16 09:09:51;;;;;;;3.08;0.80;;;;;;;25.03;35.58;100256.68;1770117;79;21382;-57
2021/05/16 09:12:57;;;;;;;2.40;0.80;;;;;;;25.16;34.99;100250.58;1769919;81;21232;-57
2021/05/16 09:16:14;;;;;;;2.25;0.90;;;;;;;25.26;34.51;100255.38;1803235;79;21401;-57
2021/05/16 09:19:20;;;;;;;4.67;0.88;;;;;;;25.30;34.39;100251.75;1803461;78;21342;-58
2021/05/16 09:22:50;;;;;;;2.67;1.02;;;;;;;25.42;34.65;100255.75;1803430;79;21192;-57
2021/05/16 09:25:56;;;;;;;4.75;0.80;;;;;;;25.49;34.27;100252.11;1802275;78;21409;-58
2021/05/16 09:29:01;;;;;;;1.98;0.70;;;;;;;25.58;34.62;100257.45;1793266;78;21782;-58
2021/05/16 09:32:10;;;;;;;3.15;0.80;;;;;;;25.66;33.72;100261.11;1801480;79;21393;-57
2021/05/16 09:35:17;;;;;;;4.05;1.10;;;;;;;25.79;33.83;100256.38;1795244;79;21357;-57
2021/05/16 09:38:26;;;;;;;1.82;0.60;;;;;;;25.94;34.56;100261.44;1803035;79;21171;-58
2021/05/16 09:41:33;;;;;;;2.25;0.80;;;;;;;26.03;34.08;100257.56;1801390;79;21230;-57
2021/05/16 09:44:47;;;;;;;3.15;1.30;;;;;;;26.12;33.73;100262.34;1791452;79;21388;-56
2021/05/16 09:47:52;;;;;;;3.17;0.72;;;;;;;26.19;33.86;100257.30;1795877;79;21199;-57
2021/05/16 09:51:26;;;;;;;4.78;0.98;;;;;;;26.33;34.49;100249.13;1799951;79;21325;-57
2021/05/16 09:54:31;;;;;;;2.27;0.80;;;;;;;26.40;34.28;100250.52;1799947;79;21339;-57
2021/05/16 09:57:40;;;;;;;4.83;0.90;;;;;;;26.56;32.62;100251.33;1801137;79;22070;-57
2021/05/16 10:00:45;;;;;;;1.07;0.80;;;;;;;26.66;32.88;100238.72;1801315;79;21251;-57
2021/05/16 10:03:50;;;;;;;1.20;0.60;;;;;;;26.83;31.50;100237.82;1799670;79;21591;-57
2021/05/16 10:06:55;;;;;;;3.22;0.95;;;;;;;26.96;29.96;100232.16;1810186;79;21337;-57
2021/05/16 10:10:00;;;;;;;2.83;0.95;;;;;;;26.99;29.24;100225.41;1787806;79;21420;-59
2021/05/16 10:13:04;;;;;;;10.08;1.62;;;;;;;27.05;29.38;100222.02;1809865;79;21326;-57
2021/05/16 10:16:09;;;;;;;2.60;0.88;;;;;;;27.08;29.90;100214.42;1810366;79;21314;-58
2021/05/16 10:19:24;;;;;;;1.17;0.60;;;;;;;27.18;31.49;100215.79;1810966;79;21242;-58
2021/05/16 10:22:39;;;;;;;5.05;0.78;;;;;;;27.30;30.32;100212.94;1809791;79;21716;-57
2021/05/16 10:25:54;;;;;;;1.30;0.65;;;;;;;27.33;30.25;100208.69;1811442;78;21350;-58
2021/05/16 10:29:09;;;;;;;1.82;0.90;;;;;;;27.30;29.68;100209.28;1809880;77;21384;-59
2021/05/16 10:32:41;;;;;;;1.22;0.70;;;;;;;27.37;30.17;100214.03;1781080;80;21365;-56
2021/05/16 10:36:00;;;;;;;2.63;0.67;;;;;;;27.47;30.59;100206.36;1781015;79;21436;-59
2021/05/16 10:39:07;;;;;;;4.15;0.68;;;;;;;27.59;30.00;100208.83;1796997;79;21219;-57
2021/05/16 10:42:23;;;;;;;2.55;0.72;;;;;;;27.67;30.29;100197.78;1812124;79;21329;-56
2021/05/16 10:45:42;;;;;;;1.50;0.60;;;;;;;28.00;30.46;100203.20;1812636;77;21207;-58
2021/05/16 10:48:47;;;;;;;0.65;0.40;;;;;;;28.27;29.01;100206.89;1812943;77;21676;-57
2021/05/16 10:51:52;;;;;;;2.20;0.78;;;;;;;28.41;29.24;100199.42;1812529;79;21337;-58
2021/05/16 10:54:58;;;;;;;4.92;0.60;;;;;;;28.48;27.44;100198.55;1812421;77;21724;-57
2021/05/16 10:58:04;;;;;;;3.80;0.80;;;;;;;28.44;27.37;100190.38;1812473;79;21156;-57
2021/05/16 11:01:22;;;;;;;1.72;0.70;;;;;;;28.54;28.72;100190.31;1812554;79;21322;-56
2021/05/16 11:04:30;;;;;;;1.17;0.60;;;;;;;28.70;28.43;100191.23;1812364;77;21227;-57
2021/05/16 11:07:44;;;;;;;1.67;0.68;;;;;;;28.78;28.43;100178.48;1797282;79;21238;-57
2021/05/16 11:10:52;;;;;;;0.98;0.55;;;;;;;28.93;27.90;100170.67;1811452;78;21381;-56
2021/05/16 11:13:57;;;;;;;2.25;0.70;;;;;;;29.11;27.99;100176.11;1812626;79;21365;-58
2021/05/16 11:17:07;;;;;;;0.80;0.68;;;;;;;29.30;28.91;100171.89;1813003;79;21313;-58
2021/05/16 11:20:15;;;;;;;5.90;0.70;;;;;;;29.59;28.42;100166.36;1812491;79;21341;-57
2021/05/16 11:23:41;;;;;;;3.80;0.70;;;;;;;29.79;27.32;100166.09;1790654;79;21310;-58
2021/05/16 11:26:47;;;;;;;1.07;0.53;;;;;;;29.76;26.58;100158.23;1812645;78;21187;-58
2021/05/16 11:29:52;;;;;;;1.55;0.90;;;;;;;29.80;26.66;100145.73;1812478;79;21250;-58
2021/05/16 11:33:00;;;;;;;1.25;0.70;;;;;;;29.91;27.00;100148.64;1807389;79;21417;-58
2021/05/16 11:36:19;;;;;;;1.37;0.70;;;;;;;29.95;26.54;100142.09;1783741;80;21212;-58
2021/05/16 11:39:30;;;;;;;3.92;0.82;;;;;;;29.97;26.53;100131.91;1812679;78;21349;-57
2021/05/16 11:42:42;;;;;;;2.98;0.70;;;;;;;30.08;25.96;100127.16;1812762;79;21321;-59
2021/05/16 11:45:50;;;;;;;1.85;0.68;;;;;;;30.19;27.31;100126.41;1812820;77;21242;-59
2021/05/16 11:49:00;;;;;;;2.12;0.80;;;;;;;30.13;26.33;100128.48;1812857;78;21207;-58
2021/05/16 11:52:12;;;;;;;3.75;0.80;;;;;;;30.03;25.46;100127.23;1812817;79;21747;-58
2021/05/16 11:55:19;;;;;;;3.00;1.10;;;;;;;30.04;26.20;100121.87;1812888;78;21203;-59
2021/05/16 11:58:26;;;;;;;4.60;1.95;;;;;;;30.12;25.84;100115.52;1812317;79;21353;-58
2021/05/16 12:01:32;;;;;;;2.92;1.05;;;;;;;30.13;25.24;100117.18;1812383;79;21751;-58
2021/05/16 12:04:46;;;;;;;2.92;0.90;;;;;;;30.16;24.92;100110.91;1812691;78;21353;-58
2021/05/16 12:07:53;;;;;;;0.72;0.50;;;;;;;30.00;25.73;100098.22;1811096;78;21345;-57
2021/05/16 12:11:19;;;;;;;2.65;0.80;;;;;;;29.78;26.80;100103.70;1812441;79;21183;-58
2021/05/16 12:14:30;;;;;;;2.85;0.80;;;;;;;29.57;27.77;100098.13;1811937;79;21755;-58
2021/05/16 12:17:40;;;;;;;2.35;0.70;;;;;;;29.42;28.17;100097.52;1812415;79;21366;-57
2021/05/16 12:20:47;;;;;;;3.30;1.00;;;;;;;29.23;28.14;100096.97;1811878;79;21688;-55
2021/05/16 12:24:01;;;;;;;3.15;0.78;;;;;;;29.12;27.90;100091.22;1812627;79;21838;-56
2021/05/16 12:27:07;;;;;;;5.28;0.93;;;;;;;28.97;28.45;100085.75;1811966;79;21704;-57
2021/05/16 12:30:15;;;;;;;2.62;1.07;;;;;;;29.00;28.72;100088.55;1812230;78;21345;-56
2021/05/16 12:33:24;;;;;;;2.98;1.07;;;;;;;29.14;28.75;100085.27;1812234;79;21385;-58
2021/05/16 12:36:30;;;;;;;1.52;0.70;;;;;;;29.28;28.11;100076.86;1812198;79;21184;-57
2021/05/16 12:39:59;;;;;;;3.20;1.10;;;;;;;29.20;27.03;100075.02;1788273;79;21404;-57
2021/05/16 12:43:14;;;;;;;1.57;0.75;;;;;;;29.06;27.18;100064.25;1811952;79;21223;-57
2021/05/16 12:46:20;;;;;;;3.05;1.17;;;;;;;29.02;27.66;100068.77;1843540;77;21342;-57
2021/05/16 12:49:28;;;;;;;3.85;0.82;;;;;;;29.09;28.85;100065.61;1784196;79;21204;-56
2021/05/16 12:52:33;;;;;;;8.60;1.40;;;;;;;29.19;28.42;100061.23;1788409;79;21838;-56
2021/05/16 12:55:38;;;;;;;3.40;1.00;;;;;;;29.36;28.13;100061.51;1808260;79;21246;-57
2021/05/16 12:59:27;;;;;;;5.12;1.20;;;;;;;29.45;28.57;100060.25;1811466;78;21875;-56
2021/05/16 13:01:52;;;;;;;3.10;1.00;;;;;;;29.45;28.47;100047.55;1807587;79;21333;-56
2021/05/16 13:05:00;;;;;;;3.50;1.00;;;;;;;29.40;28.25;100040.58;1768840;79;21267;-55
2021/05/16 13:08:05;;;;;;;3.30;0.60;;;;;;;29.44;27.94;100042.48;1810901;79;21184;-56
2021/05/16 13:11:17;;;;;;;5.22;0.90;;;;;;;29.65;26.92;100035.94;1812602;79;21358;-56
2021/05/16 13:14:39;;;;;;;3.52;0.55;;;;;;;29.80;26.91;100030.84;1811197;78;21342;-58
2021/05/16 13:17:44;;;;;;;1.60;0.88;;;;;;;29.93;25.84;100025.80;1806751;79;21342;-57
2021/05/16 13:20:49;;;;;;;5.47;0.62;;;;;;;29.79;25.38;100016.48;1752854;80;21221;-57
2021/05/16 13:24:08;;;;;;;2.22;0.82;;;;;;;29.79;25.38;100016.48;1752234;80;21373;-57
2021/05/16 13:27:17;;;;;;;2.80;0.95;;;;;;;29.57;26.70;100025.33;1779831;80;21310;-57
2021/05/16 13:30:22;;;;;;;2.10;0.60;;;;;;;29.47;27.21;100021.26;1766255;80;21199;-58
2021/05/16 13:33:43;;;;;;;3.30;0.90;;;;;;;29.54;27.39;100014.09;1758043;80;21156;-56
2021/05/16 13:36:50;;;;;;;4.12;0.80;;;;;;;29.72;26.44;100016.03;1780823;80;21744;-57
2021/05/16 13:39:58;;;;;;;3.15;0.70;;;;;;;29.87;26.64;100010.13;1791112;79;21858;-57
2021/05/16 13:43:03;;;;;;;2.65;0.70;;;;;;;30.01;25.51;100005.88;1812791;79;21187;-57
2021/05/16 13:46:07;;;;;;;2.42;0.72;;;;;;;30.12;25.53;100003.12;1810970;79;22013;-56
2021/05/16 13:49:19;;;;;;;1.20;0.80;;;;;;;30.24;26.36;100000.66;1810839;79;21948;-57
2021/05/16 13:52:25;;;;;;;3.65;0.70;;;;;;;30.38;26.27;99993.01;1810897;79;21337;-58
2021/05/16 13:55:30;;;;;;;3.30;0.80;;;;;;;30.40;27.12;99988.70;1811119;79;21366;-56
2021/05/16 13:58:36;;;;;;;2.08;0.80;;;;;;;30.40;27.12;99988.70;1810690;79;21164;-56
2021/05/16 14:01:41;;;;;;;2.58;0.80;;;;;;;30.43;27.21;99988.06;1810675;79;21868;-55
2021/05/16 14:04:47;;;;;;;4.47;1.00;;;;;;;30.54;26.00;99985.27;1810772;79;21342;-55
2021/05/16 14:07:52;;;;;;;4.67;0.93;;;;;;;30.42;25.22;99975.10;1810699;79;21195;-57
2021/05/16 14:11:00;;;;;;;4.67;1.10;;;;;;;30.36;25.29;99972.70;1795575;79;21370;-57
2021/05/16 14:14:06;;;;;;;3.95;0.78;;;;;;;30.36;25.29;99972.70;1796673;80;21362;-55
2021/05/16 14:17:13;;;;;;;2.58;0.90;;;;;;;30.84;24.01;99961.73;1796703;80;21720;-56
2021/05/16 14:20:20;;;;;;;2.55;0.93;;;;;;;30.84;24.01;99961.73;1796983;80;21192;-56
2021/05/16 14:23:27;;;;;;;4.58;1.00;;;;;;;30.88;24.22;99962.19;1797014;80;21779;-57
2021/05/16 14:26:34;;;;;;;2.35;1.00;;;;;;;30.78;24.07;99951.71;1795258;80;21197;-57